METAR Formatted Surface Weather Observation
Issued by NWS

Home | Current Version | Previous Version | Text Only | Print | Product List | Glossary On
Versions: 1 2 3 4 5 6 7 8 9 10 11 12 13 14 15 16 17 18 19 20 21 22 23 24 25 26 27 28 29
417
SAUS43 KDTX 282054
MTRP58
METAR KP58 282051Z AUTO 01006KT 22/18 A2993 RMK AO1 SLP129 T02220183
57006



USA.gov is the U.S. government's official web portal to all federal, state and local government web resources and services.